Sete Lagoas, Brazil
Current Conditions -  °F | °C
As of 4:00 PM on Monday 24 Nov 2014 (Local Time) from SBLS Reporting Station
Overcast Overcast  
Wind Chill: 72°   Ceiling: 600
Heat Index: 72°   Visibility: 4mi
Dew Point: 68°   Wind: 3mph
Humidity: 88%   Direction: 50°NE
Pressure: 30.03"   Gusts: NA
Location:  19.45°S, 44.25°W
Report Text: SBLS 241800Z 05003KT 360V110 6000 BKN006 BKN020 OVC100 22/20 Q1017
Loading
Personal Weather Stations






























Interactive Weather Map New forecast layout! Learn more

10-Day Weather Forecast

Advertisements
Track Severe Weather on mobile